createdAt,value
2022-12-08T00:00:05.411Z,311.41
2022-12-08T00:01:05.382Z,312.60
2022-12-08T00:02:05.473Z,314.69
2022-12-08T00:03:05.462Z,313.19
2022-12-08T00:04:05.351Z,312.60
2022-12-08T00:05:05.836Z,313.79
2022-12-08T00:06:05.331Z,315.00
2022-12-08T00:07:05.306Z,319.60
2022-12-08T00:08:05.375Z,320.54
2022-12-08T00:09:05.303Z,316.52
2022-12-08T00:10:25.109Z,319.60
2022-12-08T00:11:06.265Z,315.60
2022-12-08T00:12:05.255Z,320.22
2022-12-08T00:13:05.238Z,317.43
2022-12-08T00:14:05.231Z,315.60
2022-12-08T00:15:05.546Z,316.21
2022-12-08T00:16:05.229Z,316.82
2022-12-08T00:17:05.256Z,319.60
2022-12-08T00:18:05.232Z,320.85
2022-12-08T00:19:05.178Z,318.05
2022-12-08T00:20:05.178Z,321.16
2022-12-08T00:21:05.154Z,319.91
2022-12-08T00:22:05.156Z,318.98
2022-12-08T00:23:05.137Z,324.02
2022-12-08T00:24:05.133Z,321.48
2022-12-08T00:25:05.488Z,321.48
2022-12-08T00:26:05.120Z,321.16
2022-12-08T00:27:05.104Z,322.74
2022-12-08T00:28:05.085Z,321.48
2022-12-08T00:29:05.079Z,324.98
2022-12-08T00:30:05.080Z,322.11
2022-12-08T00:31:05.059Z,320.85
2022-12-08T00:32:05.197Z,321.48
2022-12-08T00:33:05.030Z,323.38
2022-12-08T00:34:05.030Z,320.54
2022-12-08T00:35:05.252Z,321.16
2022-12-08T00:36:05.003Z,323.70
2022-12-08T00:37:05.005Z,322.11
2022-12-08T00:38:04.969Z,323.70
2022-12-08T00:39:04.968Z,321.48
2022-12-08T00:40:05.257Z,321.16
2022-12-08T00:41:04.943Z,320.22
2022-12-08T00:42:04.932Z,322.11
2022-12-08T00:43:04.915Z,321.16
2022-12-08T00:44:04.916Z,323.70
2022-12-08T00:45:04.912Z,319.60
2022-12-08T00:46:04.935Z,320.54
2022-12-08T00:47:04.877Z,319.29
2022-12-08T00:48:04.861Z,320.22
2022-12-08T00:49:04.848Z,323.38
2022-12-08T00:50:05.028Z,320.22
2022-12-08T00:51:04.834Z,321.16
2022-12-08T00:52:04.819Z,321.16
2022-12-08T00:53:04.810Z,321.16
2022-12-08T00:54:04.825Z,318.05
2022-12-08T00:55:04.805Z,319.29
2022-12-08T00:56:04.781Z,317.13
2022-12-08T00:57:04.774Z,319.60
2022-12-08T00:58:04.770Z,318.67
2022-12-08T00:59:04.742Z,319.91
2022-12-08T01:00:04.865Z,322.74
2022-12-08T01:01:04.746Z,319.60
2022-12-08T01:02:04.720Z,320.54
2022-12-08T01:03:04.748Z,321.16
2022-12-08T01:04:04.689Z,323.70
2022-12-08T01:05:04.672Z,324.02
2022-12-08T01:06:04.664Z,320.85
2022-12-08T01:07:04.688Z,322.11
2022-12-08T01:08:04.723Z,322.11
2022-12-08T01:09:04.657Z,324.98
2022-12-08T01:10:04.981Z,322.74
2022-12-08T01:11:04.630Z,322.74
2022-12-08T01:12:04.615Z,323.06
2022-12-08T01:13:04.602Z,324.02
2022-12-08T01:14:04.594Z,321.79
2022-12-08T01:15:04.588Z,323.06
2022-12-08T01:16:04.569Z,322.74
2022-12-08T01:17:04.583Z,324.34
2022-12-08T01:18:04.563Z,324.66
2022-12-08T01:19:04.522Z,322.42
2022-12-08T01:20:04.788Z,325.30
2022-12-08T01:21:04.510Z,323.70
2022-12-08T01:22:04.497Z,326.27
2022-12-08T01:23:04.504Z,324.02
2022-12-08T01:24:04.468Z,324.34
2022-12-08T01:25:04.464Z,327.90
2022-12-08T01:26:04.448Z,325.62
2022-12-08T01:27:04.442Z,326.27
2022-12-08T01:28:04.448Z,325.30
2022-12-08T01:29:04.421Z,328.89
2022-12-08T01:30:04.800Z,328.23
2022-12-08T01:31:04.430Z,326.27
2022-12-08T01:32:04.381Z,329.55
2022-12-08T01:33:04.386Z,329.22
2022-12-08T01:34:04.378Z,326.27
2022-12-08T01:35:04.346Z,327.58
2022-12-08T01:36:04.352Z,325.30
2022-12-08T01:37:04.326Z,327.90
2022-12-08T01:38:04.346Z,327.58
2022-12-08T01:39:04.330Z,326.60
2022-12-08T01:40:04.531Z,325.30
2022-12-08T01:41:04.291Z,324.02
2022-12-08T01:42:04.281Z,323.70
2022-12-08T01:43:04.286Z,322.74
2022-12-08T01:44:04.269Z,322.11
2022-12-08T01:45:04.247Z,320.54
2022-12-08T01:46:04.308Z,323.06
2022-12-08T01:47:04.229Z,322.74
2022-12-08T01:48:04.333Z,320.85
2022-12-08T01:49:04.225Z,318.98
2022-12-08T01:50:04.447Z,318.05
2022-12-08T01:51:04.180Z,319.91
2022-12-08T01:52:04.174Z,315.90
2022-12-08T01:53:04.174Z,319.29
2022-12-08T01:54:04.159Z,318.05
2022-12-08T01:55:04.139Z,316.82
2022-12-08T01:56:04.133Z,314.39
2022-12-08T01:57:04.117Z,315.30
2022-12-08T01:58:04.102Z,313.49
2022-12-08T01:59:04.107Z,313.49
2022-12-08T02:00:04.505Z,313.19
2022-12-08T02:01:04.163Z,314.39
2022-12-08T02:02:04.131Z,313.79
2022-12-08T02:03:04.103Z,315.90
2022-12-08T02:04:04.035Z,314.39
2022-12-08T02:05:04.029Z,312.00
2022-12-08T02:06:04.043Z,310.82
2022-12-08T02:07:07.937Z,315.60
2022-12-08T02:08:04.065Z,313.19
2022-12-08T02:09:03.983Z,314.69
2022-12-08T02:10:04.118Z,312.60
2022-12-08T02:11:03.974Z,311.41
2022-12-08T02:12:03.953Z,311.11
2022-12-08T02:13:03.954Z,311.11
2022-12-08T02:14:03.947Z,311.11
2022-12-08T02:15:05.554Z,310.82
2022-12-08T02:16:04.022Z,311.41
2022-12-08T02:17:03.902Z,309.64
2022-12-08T02:18:03.885Z,310.82
2022-12-08T02:19:29.606Z,309.06
2022-12-08T02:20:05.063Z,308.77
2022-12-08T02:21:03.852Z,309.06
2022-12-08T02:22:03.841Z,309.64
2022-12-08T02:23:03.850Z,309.64
2022-12-08T02:24:03.868Z,305.32
2022-12-08T02:25:03.823Z,307.61
2022-12-08T02:26:03.813Z,307.90
2022-12-08T02:27:03.789Z,308.48
2022-12-08T02:28:03.781Z,306.18
2022-12-08T02:29:03.795Z,308.48
2022-12-08T02:30:04.077Z,306.46
2022-12-08T02:31:03.784Z,307.61
2022-12-08T02:32:03.736Z,305.61
2022-12-08T02:33:03.730Z,303.91
2022-12-08T02:34:03.730Z,305.04
2022-12-08T02:35:03.728Z,304.76
2022-12-08T02:36:03.699Z,304.47
2022-12-08T02:37:03.683Z,306.75
2022-12-08T02:38:03.727Z,306.18
2022-12-08T02:39:03.662Z,303.63
2022-12-08T02:40:04.109Z,303.07
2022-12-08T02:41:03.638Z,299.74
2022-12-08T02:42:03.628Z,298.38
2022-12-08T02:43:03.628Z,297.30
2022-12-08T02:44:03.626Z,297.30
2022-12-08T02:45:03.598Z,297.84
2022-12-08T02:46:03.610Z,297.84
2022-12-08T02:47:03.580Z,298.38
2022-12-08T02:48:03.574Z,297.57
2022-12-08T02:49:03.581Z,301.67
2022-12-08T02:50:03.826Z,300.29
2022-12-08T02:51:03.554Z,301.67
2022-12-08T02:52:03.536Z,301.40
2022-12-08T02:53:03.509Z,301.12
2022-12-08T02:54:03.524Z,302.51
2022-12-08T02:55:03.486Z,301.95
2022-12-08T02:56:03.509Z,300.02
2022-12-08T02:57:03.477Z,301.95
2022-12-08T02:58:03.457Z,300.02
2022-12-08T02:59:03.447Z,300.57
2022-12-08T03:00:03.855Z,304.47
2022-12-08T03:01:03.505Z,300.29
2022-12-08T03:02:03.481Z,303.07
2022-12-08T03:03:03.446Z,304.19
2022-12-08T03:04:03.385Z,302.23
2022-12-08T03:05:03.379Z,303.35
2022-12-08T03:06:03.381Z,303.63
2022-12-08T03:07:03.356Z,305.61
2022-12-08T03:08:03.399Z,304.76
2022-12-08T03:09:03.345Z,304.47
2022-12-08T03:10:03.614Z,307.33
2022-12-08T03:11:03.338Z,307.61
2022-12-08T03:12:03.305Z,306.18
2022-12-08T03:13:03.289Z,310.23
2022-12-08T03:14:03.323Z,308.77
2022-12-08T03:15:03.281Z,308.19
2022-12-08T03:16:03.330Z,306.18
2022-12-08T03:17:03.265Z,305.32
2022-12-08T03:18:03.238Z,308.19
2022-12-08T03:19:03.254Z,309.35
2022-12-08T03:20:03.484Z,307.90
2022-12-08T03:21:03.229Z,311.41
2022-12-08T03:22:03.199Z,307.61
2022-12-08T03:23:03.182Z,310.23
2022-12-08T03:24:03.186Z,309.64
2022-12-08T03:25:03.172Z,308.77
2022-12-08T03:26:03.151Z,311.41
2022-12-08T03:27:03.145Z,308.77
2022-12-08T03:28:03.130Z,312.00
2022-12-08T03:29:03.148Z,309.94
2022-12-08T03:30:03.579Z,311.70
2022-12-08T03:31:03.148Z,309.06
2022-12-08T03:32:03.098Z,313.49
2022-12-08T03:33:03.077Z,311.41
2022-12-08T03:34:03.086Z,314.39
2022-12-08T03:35:03.071Z,310.82
2022-12-08T03:36:03.046Z,310.82
2022-12-08T03:37:03.043Z,310.82
2022-12-08T03:38:03.048Z,309.35
2022-12-08T03:39:03.016Z,308.77
2022-12-08T03:40:03.376Z,309.94
2022-12-08T03:41:02.990Z,311.70
2022-12-08T03:42:02.975Z,312.60
2022-12-08T03:43:02.979Z,311.70
2022-12-08T03:44:02.979Z,308.19
2022-12-08T03:45:02.945Z,307.90
2022-12-08T03:46:03.006Z,308.77
2022-12-08T03:47:02.924Z,307.90
2022-12-08T03:48:02.910Z,307.90
2022-12-08T03:49:02.914Z,309.06
2022-12-08T03:50:03.214Z,307.90
2022-12-08T03:51:02.885Z,307.90
2022-12-08T03:52:02.885Z,308.77
2022-12-08T03:53:09.876Z,304.76
2022-12-08T03:54:02.855Z,305.04
2022-12-08T03:55:02.834Z,305.04
2022-12-08T03:56:02.821Z,303.07
2022-12-08T03:57:02.810Z,304.19
2022-12-08T03:58:02.822Z,302.79
2022-12-08T03:59:02.810Z,300.84
2022-12-08T04:00:03.261Z,298.92
2022-12-08T04:01:02.784Z,298.65
2022-12-08T04:02:02.815Z,295.96
2022-12-08T04:03:02.885Z,296.76
2022-12-08T04:04:02.762Z,295.69
2022-12-08T04:05:02.728Z,295.16
2022-12-08T04:06:02.744Z,295.43
2022-12-08T04:07:02.708Z,294.10
2022-12-08T04:08:09.755Z,293.58
2022-12-08T04:09:02.679Z,295.69
2022-12-08T04:10:03.035Z,293.05
2022-12-08T04:11:02.663Z,293.05
2022-12-08T04:12:02.650Z,289.94
2022-12-08T04:13:02.633Z,292.01
2022-12-08T04:14:02.644Z,292.01
2022-12-08T04:15:02.627Z,291.23
2022-12-08T04:16:02.655Z,289.18
2022-12-08T04:17:02.593Z,290.46
2022-12-08T04:18:02.583Z,289.18
2022-12-08T04:19:02.600Z,289.69
2022-12-08T04:20:02.959Z,289.18
2022-12-08T04:21:02.552Z,288.92
2022-12-08T04:22:02.541Z,289.43
2022-12-08T04:23:02.539Z,288.92
2022-12-08T04:24:02.550Z,288.92
2022-12-08T04:25:02.508Z,287.40
2022-12-08T04:26:02.500Z,288.42
2022-12-08T04:27:02.483Z,290.46
2022-12-08T04:28:02.505Z,288.92
2022-12-08T04:29:02.466Z,288.67
2022-12-08T04:30:02.861Z,289.43
2022-12-08T04:31:02.491Z,288.67
2022-12-08T04:32:02.456Z,286.65
2022-12-08T04:33:02.446Z,287.15
2022-12-08T04:34:02.415Z,286.40
2022-12-08T04:35:02.409Z,286.40
2022-12-08T04:36:02.390Z,285.90
2022-12-08T04:37:02.394Z,285.16
2022-12-08T04:38:02.368Z,287.40
2022-12-08T04:39:02.356Z,284.42
2022-12-08T04:40:02.819Z,284.66
2022-12-08T04:41:02.335Z,282.70
2022-12-08T04:42:02.350Z,282.94
2022-12-08T04:43:02.323Z,280.29
2022-12-08T04:44:02.315Z,279.09
2022-12-08T04:45:02.293Z,279.09
2022-12-08T04:46:02.278Z,279.81
2022-12-08T04:47:02.310Z,278.15
2022-12-08T04:48:02.282Z,276.04
2022-12-08T04:49:02.245Z,273.97
2022-12-08T04:50:02.566Z,276.04
2022-12-08T04:51:02.225Z,273.28
2022-12-08T04:52:02.228Z,269.69
2022-12-08T04:53:02.218Z,271.70
2022-12-08T04:54:02.233Z,269.02
2022-12-08T04:55:02.188Z,266.84
2022-12-08T04:56:02.191Z,267.27
2022-12-08T04:57:02.179Z,266.84
2022-12-08T04:58:02.172Z,266.84
2022-12-08T04:59:02.136Z,263.41
2022-12-08T05:00:02.455Z,262.99
2022-12-08T05:01:02.288Z,263.41
2022-12-08T05:02:02.373Z,262.57
2022-12-08T05:03:02.168Z,263.41
2022-12-08T05:04:02.087Z,259.66
2022-12-08T05:05:02.075Z,261.52
2022-12-08T05:06:02.061Z,258.84
2022-12-08T05:07:02.050Z,258.63
2022-12-08T05:08:02.147Z,256.21
2022-12-08T05:09:02.043Z,257.01
2022-12-08T05:10:02.449Z,253.44
2022-12-08T05:11:02.012Z,252.08
2022-12-08T05:12:02.012Z,251.88
2022-12-08T05:13:02.001Z,253.05
2022-12-08T05:14:01.974Z,251.30
2022-12-08T05:15:01.974Z,251.30
2022-12-08T05:16:02.032Z,251.69
2022-12-08T05:17:07.755Z,251.88
2022-12-08T05:18:02.947Z,252.46
2022-12-08T05:19:01.931Z,252.66
2022-12-08T05:20:02.214Z,250.92
2022-12-08T05:21:01.903Z,252.27
2022-12-08T05:22:01.932Z,252.46
2022-12-08T05:23:01.886Z,252.66
2022-12-08T05:24:01.868Z,252.46
2022-12-08T05:25:01.859Z,252.08
2022-12-08T05:26:01.851Z,250.73
2022-12-08T05:27:01.838Z,250.15
2022-12-08T05:28:32.831Z,248.45
2022-12-08T05:29:02.818Z,249.77
2022-12-08T05:30:02.049Z,249.77
2022-12-08T05:31:01.795Z,249.01
2022-12-08T05:32:01.844Z,248.07
2022-12-08T05:33:01.788Z,250.35
2022-12-08T05:34:03.448Z,249.96
2022-12-08T05:35:01.755Z,251.88
2022-12-08T05:36:01.741Z,249.58
2022-12-08T05:37:01.728Z,251.69
2022-12-08T05:38:01.737Z,252.46
2022-12-08T05:39:01.706Z,252.85
2022-12-08T05:40:02.156Z,250.35
2022-12-08T05:41:01.688Z,251.50
2022-12-08T05:42:01.677Z,253.44
2022-12-08T05:43:01.671Z,253.05
2022-12-08T05:44:01.650Z,251.88
2022-12-08T05:45:01.657Z,252.08
2022-12-08T05:46:01.678Z,252.85
2022-12-08T05:47:01.626Z,252.27
2022-12-08T05:48:01.621Z,251.30
2022-12-08T05:49:01.598Z,251.50
2022-12-08T05:50:02.158Z,246.58
2022-12-08T05:51:01.576Z,251.11
2022-12-08T05:52:01.574Z,247.51
2022-12-08T05:53:01.569Z,249.96
2022-12-08T05:54:01.549Z,249.96
2022-12-08T05:55:01.545Z,252.66
2022-12-08T05:56:01.525Z,250.73
2022-12-08T05:57:01.524Z,251.11
2022-12-08T05:58:07.467Z,250.92
2022-12-08T05:59:02.494Z,250.15
2022-12-08T06:00:01.552Z,251.69
2022-12-08T06:01:01.471Z,251.30
2022-12-08T06:02:01.556Z,254.03
2022-12-08T06:03:01.727Z,255.61
2022-12-08T06:04:01.455Z,255.01
2022-12-08T06:05:01.450Z,255.01
2022-12-08T06:06:01.413Z,254.42
2022-12-08T06:07:01.414Z,256.21
2022-12-08T06:08:01.494Z,257.01
2022-12-08T06:09:01.376Z,258.23
2022-12-08T06:10:01.419Z,258.02
2022-12-08T06:11:01.360Z,258.02
2022-12-08T06:12:01.355Z,259.04
2022-12-08T06:13:01.359Z,259.25
2022-12-08T06:14:01.341Z,259.66
2022-12-08T06:15:01.314Z,261.52
2022-12-08T06:16:01.316Z,259.66
2022-12-08T06:17:01.358Z,262.36
2022-12-08T06:18:01.283Z,263.83
2022-12-08T06:19:01.295Z,262.57
2022-12-08T06:20:01.460Z,262.36
2022-12-08T06:21:01.253Z,261.73
2022-12-08T06:22:01.245Z,261.10
2022-12-08T06:23:01.235Z,260.07
2022-12-08T06:24:01.231Z,261.10
2022-12-08T06:25:03.245Z,260.69
2022-12-08T06:26:01.202Z,262.15
2022-12-08T06:27:01.192Z,262.57
2022-12-08T06:28:01.178Z,262.15
2022-12-08T06:29:01.180Z,264.90
2022-12-08T06:30:01.250Z,262.15
2022-12-08T06:31:01.140Z,263.83
2022-12-08T06:32:01.246Z,263.41
2022-12-08T06:33:01.127Z,265.54
2022-12-08T06:34:01.140Z,264.05
2022-12-08T06:35:01.119Z,267.05
2022-12-08T06:36:01.092Z,264.47
2022-12-08T06:37:01.078Z,264.47
2022-12-08T06:38:01.083Z,267.71
2022-12-08T06:39:01.053Z,266.19
2022-12-08T06:40:01.229Z,266.40
2022-12-08T06:41:01.039Z,266.84
2022-12-08T06:42:01.028Z,265.33
2022-12-08T06:43:01.014Z,267.05
2022-12-08T06:44:01.001Z,265.33
2022-12-08T06:45:01.010Z,266.40
2022-12-08T06:46:01.008Z,264.68
2022-12-08T06:47:00.969Z,264.26
2022-12-08T06:48:01.005Z,263.41
2022-12-08T06:49:00.954Z,264.68
2022-12-08T06:50:00.980Z,265.33
2022-12-08T06:51:00.938Z,264.68
2022-12-08T06:52:00.921Z,265.54
2022-12-08T06:53:05.115Z,264.05
2022-12-08T06:54:00.900Z,263.62
2022-12-08T06:55:00.899Z,262.78
2022-12-08T06:56:00.886Z,263.41
2022-12-08T06:57:00.870Z,263.62
2022-12-08T06:58:00.855Z,263.62
2022-12-08T06:59:00.838Z,264.26
2022-12-08T07:00:00.854Z,265.76
2022-12-08T07:01:00.843Z,265.97
2022-12-08T07:02:00.858Z,267.93
2022-12-08T07:03:00.871Z,269.69
2022-12-08T07:04:00.788Z,267.71
2022-12-08T07:05:00.793Z,267.27
2022-12-08T07:06:04.133Z,265.11
2022-12-08T07:07:00.765Z,265.76
2022-12-08T07:08:00.818Z,265.11
2022-12-08T07:09:00.742Z,266.84
2022-12-08T07:10:00.742Z,263.83
2022-12-08T07:11:00.732Z,265.11
2022-12-08T07:12:00.703Z,261.73
2022-12-08T07:13:00.695Z,261.73
2022-12-08T07:14:00.677Z,260.89
2022-12-08T07:15:00.681Z,263.62
2022-12-08T07:16:00.656Z,262.78
2022-12-08T07:17:00.692Z,264.26
2022-12-08T07:18:00.901Z,262.36
2022-12-08T07:19:00.634Z,262.57
2022-12-08T07:20:00.633Z,263.83
2022-12-08T07:21:00.595Z,264.90
2022-12-08T07:22:00.605Z,265.97
2022-12-08T07:23:00.599Z,264.68
2022-12-08T07:24:00.570Z,265.76
2022-12-08T07:25:00.560Z,266.19
2022-12-08T07:26:00.546Z,266.19
2022-12-08T07:27:00.561Z,265.97
2022-12-08T07:28:00.525Z,266.84
2022-12-08T07:29:00.519Z,265.33
2022-12-08T07:30:00.508Z,263.41
2022-12-08T07:31:00.594Z,264.26
2022-12-08T07:32:00.493Z,262.99
2022-12-08T07:33:00.487Z,263.83
2022-12-08T07:34:00.462Z,263.41
2022-12-08T07:35:00.450Z,262.57
2022-12-08T07:36:00.458Z,261.10
2022-12-08T07:37:00.433Z,259.45
2022-12-08T07:38:00.426Z,258.63
2022-12-08T07:39:00.408Z,256.61
2022-12-08T07:40:00.393Z,256.81
2022-12-08T07:41:00.402Z,257.62
2022-12-08T07:42:00.381Z,256.81
2022-12-08T07:43:00.368Z,253.83
2022-12-08T07:44:00.359Z,254.42
2022-12-08T07:45:00.341Z,254.42
2022-12-08T07:46:00.375Z,252.46
2022-12-08T07:47:00.332Z,251.88
2022-12-08T07:48:00.313Z,251.88
2022-12-08T07:49:00.302Z,252.66
2022-12-08T07:50:00.306Z,251.69
2022-12-08T07:51:00.291Z,252.08
2022-12-08T07:52:00.299Z,251.11
2022-12-08T07:53:00.276Z,252.85
2022-12-08T07:54:00.262Z,250.35
2022-12-08T07:55:00.232Z,249.96
2022-12-08T07:56:00.221Z,246.77
2022-12-08T07:57:00.220Z,244.01
2022-12-08T07:58:00.223Z,244.56
2022-12-08T07:59:00.192Z,242.93
2022-12-08T08:00:00.187Z,241.32
2022-12-08T08:01:00.376Z,239.91
2022-12-08T08:02:22.827Z,240.97
2022-12-08T08:03:01.218Z,238.17
2022-12-08T08:04:00.133Z,238.00
2022-12-08T08:05:00.245Z,235.44
2022-12-08T08:06:00.112Z,235.60
2022-12-08T08:07:00.105Z,236.28
2022-12-08T08:08:00.222Z,234.09
2022-12-08T08:09:00.110Z,232.76
2022-12-08T08:10:00.099Z,233.09
2022-12-08T08:11:00.077Z,231.12
2022-12-08T08:12:28.857Z,233.09
2022-12-08T08:13:01.035Z,235.77
2022-12-08T08:14:00.029Z,238.34
2022-12-08T08:15:00.055Z,238.00
2022-12-08T08:16:00.080Z,239.56
2022-12-08T08:17:00.129Z,242.21
2022-12-08T08:17:59.987Z,244.74
2022-12-08T08:18:59.998Z,246.40
2022-12-08T08:19:59.979Z,249.39
2022-12-08T08:21:06.757Z,252.66
2022-12-08T08:22:00.950Z,252.27
2022-12-08T08:22:59.931Z,255.21
2022-12-08T08:23:59.920Z,256.61
2022-12-08T08:24:59.928Z,259.04
2022-12-08T08:25:59.896Z,259.66
2022-12-08T08:26:59.896Z,260.69
2022-12-08T08:27:59.875Z,263.83
2022-12-08T08:28:59.863Z,260.48
2022-12-08T08:29:59.882Z,262.15
2022-12-08T08:30:59.888Z,260.89
2022-12-08T08:31:59.828Z,264.90
2022-12-08T08:32:59.821Z,263.62
2022-12-08T08:33:59.812Z,264.68
2022-12-08T08:34:59.822Z,263.62
2022-12-08T08:35:59.800Z,264.90
2022-12-08T08:36:59.850Z,261.52
2022-12-08T08:37:59.784Z,260.89
2022-12-08T08:38:59.759Z,262.36
2022-12-08T08:39:59.767Z,262.99
2022-12-08T08:40:59.751Z,262.99
2022-12-08T08:41:59.726Z,264.68
2022-12-08T08:42:59.718Z,263.41
2022-12-08T08:43:59.706Z,264.05
2022-12-08T08:44:59.695Z,263.41
2022-12-08T08:45:59.712Z,261.94
2022-12-08T08:46:59.666Z,261.31
2022-12-08T08:47:59.658Z,259.66
2022-12-08T08:48:59.648Z,261.73
2022-12-08T08:49:59.636Z,260.27
2022-12-08T08:50:59.652Z,258.23
2022-12-08T08:51:59.624Z,258.23
2022-12-08T08:52:59.608Z,254.62
2022-12-08T08:53:59.592Z,255.61
2022-12-08T08:54:59.588Z,256.41
2022-12-08T08:56:01.578Z,255.41
2022-12-08T08:56:59.562Z,255.41
2022-12-08T08:57:59.551Z,256.01
2022-12-08T08:58:59.537Z,253.44
2022-12-08T08:59:59.533Z,252.08
2022-12-08T09:00:59.520Z,252.85
2022-12-08T09:01:59.608Z,252.46
2022-12-08T09:02:59.503Z,252.08
2022-12-08T09:03:59.557Z,254.23
2022-12-08T09:04:59.530Z,257.21
2022-12-08T09:05:59.539Z,257.01
2022-12-08T09:06:59.474Z,256.61
2022-12-08T09:07:59.517Z,259.04
2022-12-08T09:08:59.450Z,260.07
2022-12-08T09:10:01.821Z,264.47
2022-12-08T09:10:59.410Z,266.40
2022-12-08T09:11:59.421Z,269.24
2022-12-08T09:12:59.393Z,268.14
2022-12-08T09:13:59.372Z,273.97
2022-12-08T09:14:59.365Z,275.35
2022-12-08T09:15:59.415Z,279.57
2022-12-08T09:16:59.364Z,282.21
2022-12-08T09:17:59.333Z,286.40
2022-12-08T09:18:59.323Z,287.66
2022-12-08T09:19:59.315Z,291.75
2022-12-08T09:20:59.304Z,294.89
2022-12-08T09:21:59.292Z,299.20
2022-12-08T09:22:59.293Z,300.29
2022-12-08T09:23:59.270Z,303.07
2022-12-08T09:24:59.256Z,307.33
2022-12-08T09:25:59.242Z,310.52
2022-12-08T09:26:59.260Z,308.77
2022-12-08T09:27:59.242Z,310.23
2022-12-08T09:28:59.214Z,307.61
2022-12-08T09:29:59.213Z,309.94
2022-12-08T09:30:59.255Z,312.30
2022-12-08T09:31:59.307Z,313.19
2022-12-08T09:32:59.191Z,311.70
2022-12-08T09:33:59.172Z,315.00
2022-12-08T09:34:59.146Z,314.39
2022-12-08T09:35:59.131Z,314.39
2022-12-08T09:36:59.125Z,314.69
2022-12-08T09:37:59.168Z,314.39
2022-12-08T09:38:59.117Z,313.49
2022-12-08T09:39:59.106Z,313.49
2022-12-08T09:40:59.085Z,310.82
2022-12-08T09:41:59.070Z,311.11
2022-12-08T09:42:59.059Z,312.00
2022-12-08T09:43:59.080Z,309.64
2022-12-08T09:44:59.042Z,309.35
2022-12-08T09:45:59.059Z,310.82
2022-12-08T09:46:59.089Z,308.77
2022-12-08T09:47:59.018Z,308.48
2022-12-08T09:48:59.017Z,310.52
2022-12-08T09:49:58.983Z,311.41
2022-12-08T09:50:59.020Z,309.35
2022-12-08T09:51:58.966Z,310.52
2022-12-08T09:52:58.962Z,311.70
2022-12-08T09:53:58.957Z,307.33
2022-12-08T09:54:58.928Z,309.35
2022-12-08T09:55:58.919Z,306.18
2022-12-08T09:56:58.917Z,306.46
2022-12-08T09:57:58.901Z,305.61
2022-12-08T09:58:58.916Z,306.75
2022-12-08T09:59:58.909Z,305.32
2022-12-08T10:00:58.882Z,305.61
2022-12-08T10:01:58.969Z,308.19
2022-12-08T10:02:58.847Z,306.75
2022-12-08T10:03:58.847Z,309.06
2022-12-08T10:04:58.911Z,310.52
2022-12-08T10:05:58.816Z,309.64
2022-12-08T10:06:58.809Z,312.60
2022-12-08T10:07:58.827Z,312.30
2022-12-08T10:08:58.796Z,315.90
2022-12-08T10:09:58.774Z,314.09
2022-12-08T10:10:58.757Z,315.30
2022-12-08T10:11:58.746Z,317.13
2022-12-08T10:12:58.744Z,317.43
2022-12-08T10:13:58.755Z,319.60
2022-12-08T10:14:58.707Z,320.22
2022-12-08T10:15:58.717Z,321.48
2022-12-08T10:16:58.763Z,321.16
2022-12-08T10:17:58.685Z,320.54
2022-12-08T10:18:58.691Z,324.02
2022-12-08T10:19:58.665Z,321.16
2022-12-08T10:20:58.647Z,322.74
2022-12-08T10:21:58.640Z,322.74
2022-12-08T10:22:58.628Z,326.60
2022-12-08T10:23:58.640Z,326.60
2022-12-08T10:24:58.610Z,327.25
2022-12-08T10:25:58.603Z,328.23
2022-12-08T10:26:58.585Z,330.21
2022-12-08T10:27:58.581Z,333.57
2022-12-08T10:28:58.566Z,332.22
2022-12-08T10:29:58.572Z,332.89
2022-12-08T10:30:58.622Z,335.96
2022-12-08T10:31:58.615Z,335.96
2022-12-08T10:32:58.519Z,338.39
2022-12-08T10:33:58.515Z,336.30
2022-12-08T10:34:58.525Z,339.79
2022-12-08T10:35:58.522Z,338.39
2022-12-08T10:36:58.479Z,340.14
2022-12-08T10:37:58.478Z,340.85
2022-12-08T10:38:58.454Z,341.55
2022-12-08T10:39:58.478Z,344.79
2022-12-08T10:40:58.440Z,344.79
2022-12-08T10:41:58.425Z,341.91
2022-12-08T10:42:58.416Z,343.34
2022-12-08T10:43:58.398Z,342.98
2022-12-08T10:44:58.420Z,343.70
2022-12-08T10:45:58.393Z,342.27
2022-12-08T10:46:58.491Z,343.34
2022-12-08T10:47:58.357Z,342.27
2022-12-08T10:48:58.350Z,344.42
2022-12-08T10:49:58.339Z,347.71
2022-12-08T10:50:58.343Z,347.34
2022-12-08T10:51:58.311Z,349.56
2022-12-08T10:52:58.303Z,351.06
2022-12-08T10:53:58.292Z,351.81
2022-12-08T10:54:58.328Z,351.06
2022-12-08T10:55:58.271Z,354.47
2022-12-08T10:56:58.259Z,357.17
2022-12-08T10:57:58.270Z,358.34
2022-12-08T10:58:58.241Z,358.34
2022-12-08T10:59:58.241Z,360.31
2022-12-08T11:00:58.293Z,357.95
2022-12-08T11:01:58.417Z,356.78
2022-12-08T11:02:58.285Z,356.78
2022-12-08T11:03:58.181Z,356.01
2022-12-08T11:04:58.173Z,355.62
2022-12-08T11:05:58.180Z,357.17
2022-12-08T11:06:58.151Z,358.34
2022-12-08T11:07:58.179Z,357.95
2022-12-08T11:08:58.135Z,359.13
2022-12-08T11:09:58.134Z,362.30
2022-12-08T11:10:58.121Z,362.70
2022-12-08T11:11:58.105Z,363.50
2022-12-08T11:12:58.084Z,362.70
2022-12-08T11:13:58.077Z,363.10
2022-12-08T11:14:58.059Z,363.90
2022-12-08T11:15:58.173Z,364.31
2022-12-08T11:16:58.082Z,363.90
2022-12-08T11:17:58.030Z,363.50
2022-12-08T11:18:58.022Z,361.10
2022-12-08T11:19:58.014Z,361.50
2022-12-08T11:20:58.016Z,361.50
2022-12-08T11:21:57.987Z,362.30
2022-12-08T11:22:57.976Z,367.57
2022-12-08T11:23:57.967Z,364.71
2022-12-08T11:24:57.991Z,365.53
2022-12-08T11:25:57.961Z,367.99
2022-12-08T11:26:57.942Z,367.57
2022-12-08T11:27:57.923Z,369.64
2022-12-08T11:28:57.914Z,367.99
2022-12-08T11:29:57.898Z,367.99
2022-12-08T11:30:57.890Z,368.81
2022-12-08T11:31:57.981Z,365.93
2022-12-08T11:32:57.865Z,368.81
2022-12-08T11:33:57.860Z,370.48
2022-12-08T11:34:57.853Z,370.48
2022-12-08T11:35:57.869Z,371.74
2022-12-08T11:36:57.939Z,373.01
2022-12-08T11:38:13.414Z,373.01
2022-12-08T11:38:58.806Z,373.86
2022-12-08T11:39:57.803Z,373.43
2022-12-08T11:40:57.807Z,374.28
2022-12-08T11:41:57.769Z,373.86
2022-12-08T11:42:57.755Z,373.86
2022-12-08T11:43:57.748Z,374.28
2022-12-08T11:44:57.737Z,375.57
2022-12-08T11:45:57.770Z,371.32
2022-12-08T11:46:57.742Z,374.28
2022-12-08T11:47:57.705Z,375.57
2022-12-08T11:49:01.261Z,373.01
2022-12-08T11:49:58.683Z,374.71
2022-12-08T11:50:57.682Z,373.01
2022-12-08T11:51:57.663Z,373.43
2022-12-08T11:52:57.647Z,375.57
2022-12-08T11:53:57.637Z,375.57
2022-12-08T11:54:57.626Z,374.28
2022-12-08T11:55:57.632Z,373.43
2022-12-08T11:56:57.624Z,372.58
2022-12-08T11:57:57.641Z,370.06
2022-12-08T11:58:57.593Z,372.58
2022-12-08T11:59:57.575Z,371.74
2022-12-08T12:00:57.580Z,374.28
2022-12-08T12:01:57.601Z,373.86
2022-12-08T12:02:57.593Z,373.86
2022-12-08T12:03:57.530Z,370.06
2022-12-08T12:04:57.528Z,370.90
2022-12-08T12:06:13.124Z,370.06
2022-12-08T12:06:58.515Z,371.32
2022-12-08T12:07:57.507Z,370.90
2022-12-08T12:08:57.481Z,369.64
2022-12-08T12:09:57.474Z,372.16
2022-12-08T12:10:57.455Z,373.43
2022-12-08T12:11:57.445Z,373.86
2022-12-08T12:12:57.453Z,373.86
2022-12-08T12:13:57.425Z,372.16
2022-12-08T12:14:57.408Z,372.58
2022-12-08T12:15:57.402Z,373.43
2022-12-08T12:16:57.415Z,374.28
2022-12-08T12:17:57.404Z,372.16
2022-12-08T12:18:57.372Z,376.43
2022-12-08T12:19:57.361Z,376.43
2022-12-08T12:20:57.343Z,377.73
2022-12-08T12:21:57.416Z,380.39
2022-12-08T12:22:57.342Z,382.36
2022-12-08T12:23:57.313Z,379.74
2022-12-08T12:24:57.304Z,381.05
2022-12-08T12:25:57.304Z,378.17
2022-12-08T12:26:57.308Z,380.18
2022-12-08T12:27:57.601Z,380.83